Time;durP1;ratioP1;P1;durP2;ratioP2;P2;SDS_P1;SDS_P2;PMS_P1;PMS_P2;Temp;Humidity;BMP_temperature;BMP_pressure;BME280_temperature;BME280_humidity;BME280_pressure;Samples;Min_cycle;Max_cycle;Signal;HPM_P1;HPM_P2
2023/08/19 00:00:15;;;;;;;126.03;67.57;;;23.80;92.80;;;;;;4977400;28;87228;-85
2023/08/19 00:02:41;;;;;;;123.57;65.97;;;23.80;92.30;;;;;;5000569;28;85135;-84
2023/08/19 00:05:08;;;;;;;125.28;67.22;;;23.90;92.40;;;;;;5000512;28;85308;-85
2023/08/19 00:07:33;;;;;;;126.30;66.80;;;23.90;92.40;;;;;;5001554;28;83994;-85
2023/08/19 00:10:02;;;;;;;125.38;66.38;;;23.80;92.10;;;;;;5000002;28;84339;-85
2023/08/19 00:12:28;;;;;;;125.82;65.75;;;23.80;91.80;;;;;;5000857;28;85683;-85
2023/08/19 00:14:57;;;;;;;129.07;68.45;;;23.80;92.10;;;;;;5000342;28;84618;-85
2023/08/19 00:17:23;;;;;;;125.43;66.93;;;23.80;92.50;;;;;;5000108;28;84010;-84
2023/08/19 00:19:49;;;;;;;125.07;66.57;;;23.80;92.50;;;;;;5000633;28;84648;-84
2023/08/19 00:22:15;;;;;;;130.10;68.85;;;23.80;92.30;;;;;;5006833;28;85061;-84
2023/08/19 00:24:41;;;;;;;129.68;67.85;;;23.80;92.70;;;;;;4996540;28;85145;-83
2023/08/19 00:27:06;;;;;;;125.97;67.85;;;23.80;92.60;;;;;;4999799;28;84082;-84
2023/08/19 00:29:32;;;;;;;124.93;66.32;;;23.80;92.50;;;;;;4999955;28;85108;-87
2023/08/19 00:31:58;;;;;;;126.43;67.03;;;23.90;92.80;;;;;;4999239;28;85083;-85
2023/08/19 00:34:23;;;;;;;122.35;65.75;;;23.80;92.60;;;;;;4999152;28;84051;-85
2023/08/19 00:36:49;;;;;;;125.72;67.78;;;23.80;93.00;;;;;;4998784;28;84621;-86
2023/08/19 00:39:15;;;;;;;124.70;66.50;;;23.80;92.50;;;;;;4999596;28;84240;-85
2023/08/19 00:41:40;;;;;;;127.25;67.03;;;23.80;92.10;;;;;;4998836;28;85458;-85
2023/08/19 00:44:07;;;;;;;126.97;66.90;;;23.80;92.20;;;;;;4999563;28;84939;-85
2023/08/19 00:46:33;;;;;;;122.40;64.00;;;23.80;92.50;;;;;;4993613;28;84702;-84
2023/08/19 00:49:00;;;;;;;124.82;66.47;;;23.80;90.90;;;;;;4979807;28;84710;-85
2023/08/19 00:51:26;;;;;;;120.93;64.00;;;23.80;91.90;;;;;;4990269;28;85536;-85
2023/08/19 00:53:52;;;;;;;126.40;67.60;;;23.80;91.20;;;;;;4999093;28;84902;-85
2023/08/19 00:56:18;;;;;;;125.03;66.75;;;23.80;92.30;;;;;;5003427;28;83995;-85
2023/08/19 00:58:45;;;;;;;122.05;65.38;;;23.80;92.60;;;;;;5000610;28;84337;-85
2023/08/19 01:01:11;;;;;;;126.07;66.07;;;23.80;91.90;;;;;;4980201;28;87612;-85
2023/08/19 01:03:37;;;;;;;123.68;66.30;;;23.80;92.10;;;;;;4998970;28;84604;-84
2023/08/19 01:06:29;;;;;;;123.70;65.30;;;23.80;92.00;;;;;;4980904;28;84116;-87
2023/08/19 01:09:26;;;;;;;122.90;65.30;;;23.80;91.50;;;;;;4978062;28;86975;-86
2023/08/19 01:12:02;;;;;;;121.95;64.50;;;23.80;91.20;;;;;;4976980;28;88334;-87
2023/08/19 01:14:31;;;;;;;120.78;64.20;;;23.80;91.70;;;;;;4980515;28;85713;-87
2023/08/19 01:16:59;;;;;;;123.50;65.68;;;23.80;91.10;;;;;;4981113;28;84286;-87
2023/08/19 01:19:31;;;;;;;123.85;66.53;;;23.80;91.50;;;;;;4979603;28;87111;-86
2023/08/19 01:22:05;;;;;;;125.68;65.40;;;23.80;92.10;;;;;;4969947;28;88706;-86
2023/08/19 01:24:38;;;;;;;123.20;64.57;;;23.80;91.50;;;;;;4973355;28;87214;-87
2023/08/19 01:27:20;;;;;;;123.47;65.80;;;23.70;91.60;;;;;;4961180;28;84032;-87
2023/08/19 01:29:46;;;;;;;121.95;65.10;;;23.80;91.10;;;;;;4977643;28;87116;-86
2023/08/19 01:32:13;;;;;;;123.05;64.80;;;23.80;91.90;;;;;;4989251;28;85356;-86
2023/08/19 01:34:38;;;;;;;125.47;66.25;;;23.80;91.30;;;;;;4998749;28;84991;-85
2023/08/19 01:37:07;;;;;;;121.95;64.78;;;23.80;91.70;;;;;;4979797;28;84685;-85
2023/08/19 01:39:36;;;;;;;121.97;64.22;;;23.70;91.40;;;;;;5018108;28;84657;-84
2023/08/19 01:42:02;;;;;;;125.53;65.25;;;23.70;91.40;;;;;;4978392;28;85739;-86
2023/08/19 01:44:29;;;;;;;123.90;65.35;;;23.70;91.40;;;;;;4979736;28;84934;-86
2023/08/19 01:46:54;;;;;;;123.90;64.68;;;23.70;91.60;;;;;;4980437;28;84774;-86
2023/08/19 01:49:20;;;;;;;123.25;65.15;;;23.70;91.30;;;;;;4975705;28;86269;-86
2023/08/19 01:51:45;;;;;;;122.82;65.70;;;23.70;91.60;;;;;;4984068;28;84902;-86
2023/08/19 01:54:11;;;;;;;122.57;65.35;;;23.70;92.20;;;;;;4997859;28;85340;-84
2023/08/19 01:56:37;;;;;;;121.78;63.97;;;23.70;91.50;;;;;;4996667;28;84895;-82
2023/08/19 01:59:02;;;;;;;123.55;66.78;;;23.70;91.20;;;;;;4997578;28;84611;-81
2023/08/19 02:01:28;;;;;;;122.80;64.22;;;23.70;92.10;;;;;;5000404;28;85798;-81
2023/08/19 02:03:53;;;;;;;123.65;64.65;;;23.70;91.00;;;;;;4999862;28;86429;-82
2023/08/19 02:06:19;;;;;;;122.38;65.38;;;23.70;91.40;;;;;;4977348;28;84744;-82
2023/08/19 02:08:45;;;;;;;122.22;65.25;;;23.70;91.70;;;;;;4997636;28;85403;-82
2023/08/19 02:11:10;;;;;;;123.95;64.78;;;23.70;91.80;;;;;;4996060;28;85778;-83
2023/08/19 02:13:36;;;;;;;119.60;63.00;;;23.70;92.00;;;;;;4996920;28;84496;-84
2023/08/19 02:16:01;;;;;;;120.05;62.63;;;23.70;91.10;;;;;;4997716;28;83947;-84
2023/08/19 02:18:28;;;;;;;121.10;64.30;;;23.70;91.40;;;;;;4997581;28;84749;-84
2023/08/19 02:20:54;;;;;;;122.22;63.50;;;23.60;91.30;;;;;;4997546;28;85626;-84
2023/08/19 02:23:19;;;;;;;122.07;64.90;;;23.60;91.00;;;;;;4995802;28;84797;-85
2023/08/19 02:25:45;;;;;;;122.03;63.90;;;23.60;91.40;;;;;;4985520;28;84706;-85
2023/08/19 02:28:10;;;;;;;123.20;65.65;;;23.60;91.60;;;;;;4995253;28;84991;-85
2023/08/19 02:30:36;;;;;;;122.68;63.75;;;23.60;91.50;;;;;;4997405;28;85346;-85
2023/08/19 02:33:06;;;;;;;120.72;63.90;;;23.60;91.30;;;;;;4996672;28;84236;-86
2023/08/19 02:35:31;;;;;;;121.70;64.80;;;23.60;91.00;;;;;;4997975;28;84080;-86
2023/08/19 02:37:57;;;;;;;123.72;64.80;;;23.60;91.90;;;;;;4981340;28;87824;-86
2023/08/19 02:40:23;;;;;;;120.45;63.55;;;23.60;91.50;;;;;;5017659;28;84710;-85
2023/08/19 02:42:48;;;;;;;121.18;64.50;;;23.60;90.70;;;;;;4995156;28;86373;-84
2023/08/19 02:45:14;;;;;;;120.55;63.92;;;23.60;91.80;;;;;;4996600;28;84473;-85
2023/08/19 02:47:40;;;;;;;119.95;63.50;;;23.60;91.70;;;;;;4977459;28;87459;-85
2023/08/19 02:50:06;;;;;;;122.75;64.68;;;23.60;91.30;;;;;;4997860;28;85685;-85
2023/08/19 02:52:32;;;;;;;122.43;64.13;;;23.60;91.40;;;;;;4996490;28;85453;-83
2023/08/19 02:54:57;;;;;;;119.68;63.50;;;23.60;91.40;;;;;;5002546;28;84112;-85
2023/08/19 02:57:23;;;;;;;120.78;63.88;;;23.60;91.90;;;;;;4994982;28;84784;-86
2023/08/19 02:59:48;;;;;;;121.85;64.95;;;23.60;91.00;;;;;;4993229;28;85753;-85
2023/08/19 03:02:14;;;;;;;123.55;64.35;;;23.60;92.10;;;;;;4993779;28;85685;-86
2023/08/19 03:04:40;;;;;;;120.25;63.63;;;23.60;91.90;;;;;;4994673;28;84876;-86
2023/08/19 03:07:05;;;;;;;118.78;62.22;;;23.60;91.30;;;;;;4995041;28;88333;-86
2023/08/19 03:09:31;;;;;;;123.25;65.05;;;23.50;91.30;;;;;;4977911;28;87949;-85
2023/08/19 03:11:56;;;;;;;121.55;64.35;;;23.50;91.70;;;;;;4994782;28;85077;-84
2023/08/19 03:14:22;;;;;;;119.88;63.75;;;23.50;91.90;;;;;;4975563;28;84674;-85
2023/08/19 03:16:49;;;;;;;120.53;64.10;;;23.50;90.90;;;;;;4976796;28;84503;-84
2023/08/19 03:19:15;;;;;;;123.47;65.05;;;23.50;92.20;;;;;;4977102;28;85407;-85
2023/08/19 03:21:41;;;;;;;121.53;64.28;;;23.50;91.80;;;;;;4981813;28;84898;-84
2023/08/19 03:24:07;;;;;;;119.28;62.97;;;23.50;92.50;;;;;;4997225;28;84080;-86
2023/08/19 03:26:33;;;;;;;122.65;64.65;;;23.50;92.10;;;;;;4993077;28;84197;-84
2023/08/19 03:28:58;;;;;;;120.60;63.70;;;23.50;91.60;;;;;;4998271;28;85591;-82
2023/08/19 03:31:24;;;;;;;120.80;63.17;;;23.50;91.70;;;;;;4981156;28;84431;-82
2023/08/19 03:33:52;;;;;;;120.85;63.03;;;23.50;91.60;;;;;;4976944;28;84226;-82
2023/08/19 03:36:18;;;;;;;120.93;63.63;;;23.50;92.00;;;;;;4977923;28;85533;-84
2023/08/19 03:38:44;;;;;;;120.32;63.28;;;23.50;91.70;;;;;;4980502;28;85355;-83
2023/08/19 03:41:09;;;;;;;121.80;63.45;;;23.50;91.50;;;;;;4980510;28;85170;-82
2023/08/19 03:43:35;;;;;;;120.45;64.15;;;23.50;91.60;;;;;;4997569;28;84726;-82
2023/08/19 03:46:00;;;;;;;118.68;62.40;;;23.60;92.40;;;;;;4999700;28;84905;-82
2023/08/19 03:48:26;;;;;;;119.22;63.25;;;23.60;91.30;;;;;;4999625;28;84404;-83
2023/08/19 03:50:51;;;;;;;118.45;63.30;;;23.60;92.20;;;;;;4999604;28;85200;-83
2023/08/19 03:53:17;;;;;;;121.20;63.30;;;23.50;91.60;;;;;;4964594;28;84328;-82
2023/08/19 03:55:42;;;;;;;119.72;62.67;;;23.50;91.90;;;;;;4979548;28;84854;-82
2023/08/19 03:58:08;;;;;;;120.50;63.75;;;23.50;91.50;;;;;;4987723;28;85809;-82
2023/08/19 04:00:34;;;;;;;119.65;63.70;;;23.60;92.40;;;;;;4978246;28;88412;-82
2023/08/19 04:02:59;;;;;;;120.65;63.55;;;23.60;92.30;;;;;;4995126;28;84703;-83
2023/08/19 04:05:25;;;;;;;119.50;63.17;;;23.50;91.80;;;;;;4999462;28;84862;-83
2023/08/19 04:07:50;;;;;;;120.35;63.72;;;23.50;91.40;;;;;;4985274;28;87679;-82
2023/08/19 04:10:17;;;;;;;119.38;62.67;;;23.60;92.40;;;;;;4979324;28;85046;-82
2023/08/19 04:12:42;;;;;;;119.75;63.67;;;23.60;91.40;;;;;;4983254;28;84712;-83
2023/08/19 04:15:10;;;;;;;120.22;63.30;;;23.50;92.20;;;;;;4999395;28;84748;-82
2023/08/19 04:17:35;;;;;;;119.45;62.60;;;23.60;92.10;;;;;;4998830;28;85840;-82
2023/08/19 04:20:03;;;;;;;121.10;63.75;;;23.50;91.70;;;;;;4997983;28;84910;-85
2023/08/19 04:22:28;;;;;;;118.90;62.97;;;23.60;92.40;;;;;;4998067;28;84235;-85
2023/08/19 04:24:54;;;;;;;120.15;63.30;;;23.60;92.10;;;;;;4995668;28;88163;-85
2023/08/19 04:27:21;;;;;;;119.90;62.88;;;23.50;92.10;;;;;;5009336;28;85791;-85
2023/08/19 04:29:47;;;;;;;121.03;63.75;;;23.50;92.20;;;;;;4999210;28;84310;-85
2023/08/19 04:32:13;;;;;;;120.13;63.40;;;23.50;91.80;;;;;;4998626;28;84152;-85
2023/08/19 04:34:39;;;;;;;117.70;61.83;;;23.50;92.50;;;;;;4980929;28;87712;-84
2023/08/19 04:37:04;;;;;;;118.03;62.53;;;23.60;90.90;;;;;;4998633;28;84660;-85
2023/08/19 04:39:30;;;;;;;118.78;62.90;;;23.50;91.40;;;;;;4999495;28;85119;-85
2023/08/19 04:41:55;;;;;;;120.70;63.85;;;23.50;91.90;;;;;;4976384;28;85222;-84
2023/08/19 04:44:21;;;;;;;119.63;62.85;;;23.50;92.20;;;;;;4961534;28;87724;-84
2023/08/19 04:46:47;;;;;;;118.50;62.25;;;23.50;91.00;;;;;;4982711;28;85695;-84
2023/08/19 04:49:12;;;;;;;119.47;62.35;;;23.50;91.20;;;;;;4998645;28;84929;-84
2023/08/19 04:51:38;;;;;;;118.40;61.90;;;23.50;91.50;;;;;;4982786;28;84173;-85
2023/08/19 04:54:04;;;;;;;117.90;61.55;;;23.50;90.80;;;;;;5018762;28;84763;-83
2023/08/19 04:56:30;;;;;;;118.90;63.25;;;23.50;91.30;;;;;;5006362;28;85690;-83
2023/08/19 04:59:00;;;;;;;118.20;61.80;;;23.50;92.10;;;;;;4997772;28;85168;-83
2023/08/19 05:01:26;;;;;;;119.30;62.47;;;23.50;91.30;;;;;;4998846;28;84632;-84
2023/08/19 05:03:51;;;;;;;117.07;61.42;;;23.50;91.40;;;;;;4998076;28;84184;-84
2023/08/19 05:06:17;;;;;;;117.63;62.65;;;23.50;90.50;;;;;;4998343;28;85773;-85
2023/08/19 05:08:42;;;;;;;120.05;63.38;;;23.50;91.70;;;;;;4980583;28;87498;-85
2023/08/19 05:11:08;;;;;;;121.95;63.28;;;23.50;91.50;;;;;;4999028;28;84140;-85
2023/08/19 05:13:33;;;;;;;118.82;62.63;;;23.60;92.20;;;;;;4997721;28;85019;-85
2023/08/19 05:15:59;;;;;;;118.22;62.17;;;23.50;91.90;;;;;;4999087;28;85088;-88
2023/08/19 05:18:25;;;;;;;118.00;62.03;;;23.60;91.40;;;;;;4980757;28;87886;-87
2023/08/19 05:20:51;;;;;;;119.60;62.78;;;23.50;91.10;;;;;;4999070;28;84098;-87
2023/08/19 05:23:17;;;;;;;117.50;61.65;;;23.50;91.40;;;;;;5000098;28;85284;-88
2023/08/19 05:25:43;;;;;;;118.05;62.63;;;23.60;90.80;;;;;;4998177;28;85596;-88
2023/08/19 05:28:09;;;;;;;120.30;63.38;;;23.60;91.80;;;;;;4972551;28;87681;-87
2023/08/19 05:30:35;;;;;;;118.07;62.10;;;23.60;91.60;;;;;;4982618;28;84096;-88
2023/08/19 05:33:00;;;;;;;119.25;62.83;;;23.50;91.30;;;;;;4998617;28;84942;-88
2023/08/19 05:35:26;;;;;;;117.18;60.78;;;23.50;91.70;;;;;;4998841;28;85785;-87
2023/08/19 05:37:51;;;;;;;117.93;61.65;;;23.50;90.00;;;;;;4980288;28;87398;-86
2023/08/19 05:40:17;;;;;;;118.20;62.05;;;23.50;90.20;;;;;;4999196;28;84174;-85
2023/08/19 05:42:43;;;;;;;118.38;61.58;;;23.50;91.10;;;;;;4995871;28;84769;-84
2023/08/19 05:45:08;;;;;;;116.50;60.75;;;23.60;90.80;;;;;;4979899;28;88074;-84
2023/08/19 05:47:34;;;;;;;118.40;60.17;;;23.60;89.80;;;;;;4986122;28;86463;-84
2023/08/19 05:50:00;;;;;;;116.85;61.03;;;23.60;90.30;;;;;;5018612;28;84133;-83
2023/08/19 05:52:25;;;;;;;116.78;60.15;;;23.60;90.40;;;;;;5007656;28;84509;-85
2023/08/19 05:54:51;;;;;;;119.95;61.38;;;23.60;89.20;;;;;;4968018;28;88224;-84
2023/08/19 05:57:16;;;;;;;118.93;61.38;;;23.60;90.30;;;;;;4980673;28;88157;-84
2023/08/19 05:59:42;;;;;;;116.30;61.08;;;23.60;90.60;;;;;;4979375;28;84242;-83
2023/08/19 06:02:08;;;;;;;118.25;61.67;;;23.60;90.80;;;;;;4980402;28;87916;-83
2023/08/19 06:04:33;;;;;;;118.65;62.05;;;23.60;90.20;;;;;;4980018;28;87724;-82
2023/08/19 06:06:59;;;;;;;121.55;62.75;;;23.60;90.80;;;;;;4999660;28;85155;-83
2023/08/19 06:09:24;;;;;;;115.82;61.03;;;23.60;91.20;;;;;;5000322;28;84747;-83
2023/08/19 06:11:52;;;;;;;118.28;61.65;;;23.60;90.00;;;;;;4981025;28;88884;-84
2023/08/19 06:14:21;;;;;;;115.80;59.92;;;23.70;90.20;;;;;;4999757;28;85463;-85
2023/08/19 06:16:47;;;;;;;117.10;60.75;;;23.60;88.60;;;;;;4978592;28;86296;-85
2023/08/19 06:19:13;;;;;;;117.00;61.75;;;23.60;88.70;;;;;;4974754;28;85098;-84
2023/08/19 06:21:39;;;;;;;117.45;61.15;;;23.70;90.00;;;;;;4970095;28;88100;-83
2023/08/19 06:24:05;;;;;;;117.80;61.63;;;23.70;90.10;;;;;;4977387;28;86559;-84
2023/08/19 06:26:31;;;;;;;118.35;61.45;;;23.70;89.40;;;;;;4955928;28;87417;-86
2023/08/19 06:28:56;;;;;;;117.80;61.40;;;23.70;89.60;;;;;;4976036;28;84371;-85
2023/08/19 06:31:23;;;;;;;116.75;60.92;;;23.70;89.70;;;;;;4958634;28;88960;-85
2023/08/19 06:33:51;;;;;;;116.97;61.20;;;23.70;90.00;;;;;;4969865;28;85813;-85
2023/08/19 06:36:22;;;;;;;117.18;60.90;;;23.80;90.10;;;;;;4976222;28;85587;-85
2023/08/19 06:38:49;;;;;;;;;;;23.80;88.10;;;;;;4979024;28;84999;-86
2023/08/19 06:41:17;;;;;;;117.20;61.45;;;23.80;89.50;;;;;;4978534;28;86417;-86
2023/08/19 06:43:43;;;;;;;118.80;61.72;;;23.80;90.90;;;;;;4952538;28;87934;-84
2023/08/19 06:46:10;;;;;;;117.05;60.40;;;23.90;90.50;;;;;;4969821;28;88493;-83
2023/08/19 06:48:36;;;;;;;116.88;61.22;;;23.90;90.60;;;;;;4970024;28;85502;-83
2023/08/19 06:51:03;;;;;;;118.35;61.40;;;23.90;90.30;;;;;;4951149;28;87523;-84
2023/08/19 06:53:29;;;;;;;118.95;60.50;;;23.90;90.50;;;;;;4974165;28;85711;-83
2023/08/19 06:56:03;;;;;;;117.07;60.05;;;23.90;90.10;;;;;;4973926;28;86878;-84
2023/08/19 06:58:31;;;;;;;119.18;60.40;;;24.00;89.40;;;;;;4976670;28;85050;-82
2023/08/19 07:01:02;;;;;;;115.47;60.05;;;24.00;89.60;;;;;;4950225;28;86327;-83
2023/08/19 07:03:32;;;;;;;117.20;60.15;;;24.00;90.20;;;;;;4949830;28;86857;-86
2023/08/19 07:06:00;;;;;;;117.18;59.53;;;24.00;90.00;;;;;;4948057;28;86176;-85
2023/08/19 07:08:26;;;;;;;115.88;59.65;;;24.10;89.00;;;;;;4951229;28;85997;-84
2023/08/19 07:10:52;;;;;;;116.28;60.00;;;24.00;89.90;;;;;;4954888;28;88205;-87
2023/08/19 07:13:18;;;;;;;115.50;59.35;;;24.10;90.60;;;;;;4965350;28;85344;-87
2023/08/19 07:15:51;;;;;;;118.15;60.33;;;24.10;88.70;;;;;;4959072;28;85395;-86
2023/08/19 07:18:20;;;;;;;116.93;59.95;;;24.10;90.30;;;;;;4958403;28;84154;-86
2023/08/19 07:20:48;;;;;;;117.30;60.08;;;24.20;89.50;;;;;;4958133;28;84598;-82
2023/08/19 07:23:14;;;;;;;116.13;59.20;;;24.20;88.90;;;;;;4957498;28;85631;-81
2023/08/19 07:25:40;;;;;;;117.90;59.47;;;24.20;88.00;;;;;;4956597;28;85331;-83
2023/08/19 07:28:08;;;;;;;115.95;59.33;;;24.20;88.80;;;;;;4948543;28;85947;-84
2023/08/19 07:30:34;;;;;;;119.28;59.45;;;24.30;87.60;;;;;;4947264;28;87073;-83
2023/08/19 07:32:59;;;;;;;116.28;59.17;;;24.30;87.10;;;;;;4944423;28;85621;-86
2023/08/19 07:35:25;;;;;;;116.25;59.05;;;24.30;86.70;;;;;;4976022;28;85733;-80
2023/08/19 07:37:51;;;;;;;117.55;59.30;;;24.30;86.30;;;;;;4977094;28;84442;-85
2023/08/19 07:40:16;;;;;;;116.90;59.42;;;24.30;85.40;;;;;;4979752;28;84235;-85
2023/08/19 07:42:42;;;;;;;116.82;58.75;;;24.30;85.70;;;;;;4978358;28;85262;-84
2023/08/19 07:45:08;;;;;;;117.28;59.45;;;24.40;85.30;;;;;;4977142;28;84838;-84
2023/08/19 07:47:34;;;;;;;120.32;59.35;;;24.40;86.20;;;;;;4946290;28;85221;-85
2023/08/19 07:50:00;;;;;;;118.05;59.85;;;24.30;86.20;;;;;;4943574;28;89051;-85
2023/08/19 07:52:26;;;;;;;127.53;60.63;;;24.30;85.90;;;;;;4945697;28;86119;-86
2023/08/19 07:54:52;;;;;;;119.22;59.30;;;24.30;86.90;;;;;;4945633;28;90346;-84
2023/08/19 07:57:18;;;;;;;120.65;59.85;;;24.20;87.30;;;;;;4955622;28;86323;-86
2023/08/19 07:59:43;;;;;;;119.93;59.78;;;24.20;87.30;;;;;;4963501;28;88356;-87
2023/08/19 08:02:09;;;;;;;124.78;62.35;;;24.20;87.20;;;;;;4969322;28;84531;-86
2023/08/19 08:04:34;;;;;;;121.38;59.78;;;24.30;88.10;;;;;;4967775;28;85214;-88
2023/08/19 08:07:00;;;;;;;118.70;59.75;;;24.20;88.10;;;;;;4977057;28;84681;-84
2023/08/19 08:09:25;;;;;;;123.93;59.95;;;24.10;87.80;;;;;;4945244;28;85930;-87
2023/08/19 08:11:52;;;;;;;117.53;59.35;;;24.10;87.50;;;;;;4945918;28;86163;-85
2023/08/19 08:14:18;;;;;;;117.97;59.08;;;24.10;87.70;;;;;;4952031;28;86247;-83
2023/08/19 08:16:43;;;;;;;118.38;58.88;;;24.10;87.00;;;;;;4939798;28;86581;-84
2023/08/19 08:19:09;;;;;;;121.45;58.88;;;23.90;85.90;;;;;;4950628;28;85714;-83
2023/08/19 08:21:34;;;;;;;117.15;58.35;;;23.90;86.00;;;;;;4942747;28;87028;-84
2023/08/19 08:24:00;;;;;;;116.65;58.28;;;23.80;85.30;;;;;;4943366;28;86723;-83
2023/08/19 08:26:26;;;;;;;119.35;58.60;;;23.80;85.00;;;;;;4948391;28;88485;-84
2023/08/19 08:28:51;;;;;;;115.90;57.90;;;23.80;84.50;;;;;;4950167;28;86357;-83
2023/08/19 08:31:17;;;;;;;113.95;57.88;;;23.80;84.70;;;;;;4951845;28;87429;-83
2023/08/19 08:33:42;;;;;;;115.32;58.33;;;23.80;84.30;;;;;;4946144;28;85214;-84
2023/08/19 08:36:08;;;;;;;116.03;58.10;;;23.80;84.00;;;;;;4951673;28;85036;-85
2023/08/19 08:38:34;;;;;;;116.60;58.15;;;23.90;83.80;;;;;;4943526;28;85831;-84
2023/08/19 08:41:02;;;;;;;114.18;58.13;;;23.90;83.70;;;;;;4956587;28;88259;-85
2023/08/19 08:43:31;;;;;;;118.35;58.53;;;23.80;82.80;;;;;;4979178;28;84989;-84
2023/08/19 08:45:58;;;;;;;117.13;58.17;;;23.80;84.00;;;;;;4975534;28;84390;-85
2023/08/19 08:48:27;;;;;;;116.85;58.33;;;23.70;83.20;;;;;;4959806;28;84371;-86
2023/08/19 08:50:55;;;;;;;115.03;57.63;;;23.70;83.00;;;;;;4963254;28;85600;-84
2023/08/19 08:53:21;;;;;;;117.72;58.65;;;23.70;83.70;;;;;;4978529;28;84745;-80
2023/08/19 08:55:47;;;;;;;115.10;57.90;;;23.70;84.20;;;;;;4971521;28;84677;-81
2023/08/19 08:58:13;;;;;;;118.43;58.22;;;23.80;84.20;;;;;;4949942;28;85167;-78
2023/08/19 09:00:40;;;;;;;119.93;58.28;;;23.80;84.40;;;;;;4964289;28;86061;-82
2023/08/19 09:03:07;;;;;;;118.03;58.20;;;23.80;84.10;;;;;;4971405;28;86222;-80
2023/08/19 09:05:35;;;;;;;115.00;58.38;;;23.70;84.20;;;;;;4967691;28;85130;-80
2023/08/19 09:08:03;;;;;;;117.38;58.33;;;23.70;83.90;;;;;;4966337;28;85935;-81
2023/08/19 09:10:33;;;;;;;117.00;58.28;;;23.90;84.30;;;;;;4968369;28;86691;-80
2023/08/19 09:12:59;;;;;;;116.03;58.20;;;23.80;83.30;;;;;;4969607;28;85735;-82
2023/08/19 09:15:28;;;;;;;115.03;58.03;;;23.80;83.20;;;;;;4971898;28;85980;-87
2023/08/19 09:17:57;;;;;;;115.78;57.67;;;23.80;82.50;;;;;;4989036;28;85072;-87
2023/08/19 09:20:24;;;;;;;116.88;58.38;;;23.80;82.60;;;;;;4981741;28;88015;-90
2023/08/19 09:22:50;;;;;;;115.97;58.42;;;23.80;82.90;;;;;;4965577;28;88009;-90
2023/08/19 09:25:16;;;;;;;118.15;58.88;;;23.70;82.30;;;;;;4975088;28;86235;-86
2023/08/19 09:27:44;;;;;;;117.65;58.15;;;23.80;83.10;;;;;;4972714;28;85772;-90
2023/08/19 09:30:16;;;;;;;115.97;58.10;;;23.90;83.20;;;;;;4974724;28;85803;-86
2023/08/19 09:32:44;;;;;;;119.15;58.65;;;23.90;83.00;;;;;;4960663;28;87345;-86
2023/08/19 09:35:12;;;;;;;116.13;58.75;;;23.80;83.10;;;;;;4983510;28;85112;-86
2023/08/19 09:37:38;;;;;;;118.68;58.42;;;23.90;82.90;;;;;;4987236;28;85792;-84
2023/08/19 09:40:12;;;;;;;116.68;58.28;;;23.90;83.70;;;;;;4984762;28;85964;-88
2023/08/19 09:42:39;;;;;;;118.60;58.70;;;24.00;83.60;;;;;;4986405;28;84996;-86
2023/08/19 09:45:06;;;;;;;118.40;59.03;;;23.90;82.80;;;;;;4988262;28;84725;-86
2023/08/19 09:47:51;;;;;;;117.80;58.55;;;24.10;83.40;;;;;;4988675;28;85537;-84
2023/08/19 09:50:18;;;;;;;116.80;58.75;;;24.10;83.50;;;;;;4989830;28;87326;-85
2023/08/19 09:53:02;;;;;;;116.93;58.58;;;24.10;82.20;;;;;;4966051;28;87356;-85
2023/08/19 09:55:30;;;;;;;116.32;58.42;;;24.20;82.00;;;;;;4975065;28;87050;-84
2023/08/19 09:57:56;;;;;;;115.65;58.45;;;24.20;81.50;;;;;;4960750;28;85815;-85
2023/08/19 10:00:23;;;;;;;117.00;58.60;;;24.20;81.80;;;;;;4945733;28;86455;-87
2023/08/19 10:02:49;;;;;;;116.60;58.35;;;24.30;79.80;;;;;;4974264;28;88952;-88
2023/08/19 10:05:16;;;;;;;115.00;57.83;;;24.20;81.00;;;;;;4966262;28;86836;-88
2023/08/19 10:07:49;;;;;;;118.55;58.00;;;24.20;80.80;;;;;;4968728;28;86357;-85
2023/08/19 10:10:16;;;;;;;116.40;58.30;;;24.20;81.00;;;;;;4968272;28;85593;-85
2023/08/19 10:12:43;;;;;;;115.70;58.13;;;24.20;81.40;;;;;;4989639;28;85407;-87
2023/08/19 10:15:12;;;;;;;117.07;58.33;;;24.10;80.80;;;;;;4995643;28;85021;-86
2023/08/19 10:17:43;;;;;;;116.72;57.75;;;24.00;80.30;;;;;;5007095;28;85437;-87
2023/08/19 10:20:12;;;;;;;116.75;58.22;;;24.00;81.00;;;;;;5017191;28;85711;-88
2023/08/19 10:22:47;;;;;;;117.38;57.90;;;24.10;80.60;;;;;;5017039;28;86294;-89
2023/08/19 10:25:15;;;;;;;116.85;58.15;;;24.10;80.40;;;;;;5006049;28;83904;-81
2023/08/19 10:27:42;;;;;;;116.50;58.13;;;24.10;80.90;;;;;;4960070;28;86458;-82
2023/08/19 10:30:28;;;;;;;115.03;57.88;;;24.00;81.80;;;;;;4958764;28;87229;-81
2023/08/19 10:32:54;;;;;;;115.28;57.85;;;23.90;81.40;;;;;;4961093;28;85901;-81
2023/08/19 10:35:20;;;;;;;117.15;57.90;;;23.90;82.80;;;;;;4958337;28;85108;-81
2023/08/19 10:37:50;;;;;;;117.43;57.65;;;23.80;82.10;;;;;;4963792;28;85373;-81
2023/08/19 10:40:25;;;;;;;118.87;58.30;;;23.80;82.10;;;;;;4965879;28;86231;-83
2023/08/19 10:42:58;;;;;;;114.70;57.53;;;23.80;83.10;;;;;;4949643;28;87230;-82
2023/08/19 10:45:33;;;;;;;117.95;57.63;;;23.80;82.30;;;;;;4961563;28;86239;-82
2023/08/19 10:47:59;;;;;;;117.10;57.65;;;23.70;81.30;;;;;;4959527;28;85381;-81
2023/08/19 10:50:25;;;;;;;116.18;57.72;;;23.60;82.80;;;;;;4959645;28;87113;-82
2023/08/19 10:52:57;;;;;;;114.40;57.75;;;23.60;82.80;;;;;;4965594;28;85103;-81
2023/08/19 10:55:24;;;;;;;115.30;58.10;;;23.60;82.10;;;;;;4965441;28;85041;-81
2023/08/19 10:57:50;;;;;;;115.63;57.72;;;23.60;81.10;;;;;;4964688;28;87174;-81
2023/08/19 11:00:22;;;;;;;116.63;57.72;;;23.50;81.30;;;;;;4965959;28;91210;-82
2023/08/19 11:02:48;;;;;;;114.45;57.47;;;23.50;81.60;;;;;;4965542;28;85260;-81
2023/08/19 11:05:23;;;;;;;116.18;57.80;;;23.50;82.40;;;;;;4960329;28;85209;-81
2023/08/19 11:07:50;;;;;;;115.78;57.80;;;23.50;82.60;;;;;;4957131;28;88929;-82
2023/08/19 11:10:16;;;;;;;116.22;57.70;;;23.50;82.60;;;;;;4956704;28;90246;-80
2023/08/19 11:12:45;;;;;;;115.15;57.70;;;23.40;82.50;;;;;;4956016;28;90134;-82
2023/08/19 11:15:10;;;;;;;116.18;57.55;;;23.40;83.10;;;;;;4961450;28;85117;-81
2023/08/19 11:17:36;;;;;;;114.60;57.75;;;23.40;82.50;;;;;;4962189;28;86513;-80
2023/08/19 11:20:11;;;;;;;116.55;57.88;;;23.50;83.20;;;;;;4961935;28;85834;-81
2023/08/19 11:22:45;;;;;;;116.97;58.10;;;23.60;82.30;;;;;;4958404;28;86050;-81
2023/08/19 11:25:12;;;;;;;116.03;57.67;;;23.60;83.40;;;;;;4959417;28;86136;-82
2023/08/19 11:27:38;;;;;;;117.35;58.15;;;23.70;82.10;;;;;;4963200;28;85655;-80
2023/08/19 11:30:05;;;;;;;116.45;58.13;;;23.70;81.90;;;;;;4961710;28;85475;-81
2023/08/19 11:32:31;;;;;;;116.93;58.65;;;23.80;81.60;;;;;;4970195;28;85594;-81
2023/08/19 11:34:56;;;;;;;115.95;57.85;;;23.80;80.60;;;;;;4988520;28;84415;-84
2023/08/19 11:37:22;;;;;;;116.40;58.50;;;23.80;81.40;;;;;;4984094;28;88983;-80
2023/08/19 11:39:48;;;;;;;117.63;58.47;;;23.80;80.50;;;;;;4988649;28;86131;-81
2023/08/19 11:42:13;;;;;;;116.85;58.45;;;23.80;81.10;;;;;;4988364;28;85132;-79
2023/08/19 11:44:42;;;;;;;117.57;58.22;;;23.80;80.70;;;;;;4989711;28;85140;-80
2023/08/19 11:47:08;;;;;;;115.50;57.97;;;23.80;79.60;;;;;;4986570;28;85789;-79
2023/08/19 11:49:34;;;;;;;114.97;58.13;;;23.70;80.50;;;;;;4985479;28;85214;-81
2023/08/19 11:51:59;;;;;;;118.13;58.17;;;23.80;81.40;;;;;;4991237;28;85713;-79
2023/08/19 11:54:25;;;;;;;119.00;58.25;;;23.90;80.30;;;;;;4994768;28;84917;-79
2023/08/19 11:56:55;;;;;;;115.32;57.65;;;24.00;79.70;;;;;;4973030;28;86800;-79
2023/08/19 11:59:33;;;;;;;115.30;58.27;;;23.90;80.60;;;;;;4987593;28;87001;-79
2023/08/19 12:02:07;;;;;;;115.38;57.50;;;24.00;78.80;;;;;;4995414;28;85468;-79
2023/08/19 12:04:33;;;;;;;113.93;57.58;;;24.00;78.60;;;;;;4990203;28;85311;-79
2023/08/19 12:07:12;;;;;;;114.43;57.85;;;24.00;78.90;;;;;;4969612;28;87721;-79
2023/08/19 12:09:39;;;;;;;116.38;58.05;;;24.10;78.90;;;;;;4979093;28;86268;-80
2023/08/19 12:12:10;;;;;;;117.25;58.38;;;24.20;78.80;;;;;;4989697;28;84703;-82
2023/08/19 12:14:37;;;;;;;117.15;58.00;;;24.20;78.20;;;;;;4972545;28;85347;-81
2023/08/19 12:17:07;;;;;;;115.32;57.67;;;24.20;78.40;;;;;;4980197;28;85446;-79